Time;durP1;ratioP1;P1;durP2;ratioP2;P2;SDS_P1;SDS_P2;PMS_P1;PMS_P2;Temp;Humidity;BMP_temperature;BMP_pressure;BME280_temperature;BME280_humidity;BME280_pressure;Samples;Min_cycle;Max_cycle;Signal;HPM_P1;HPM_P2
2023/01/30 00:00:36;;;;;;;64.93;32.47;;;-1.80;99.90;;;-3.42;100.00;97996.44;5057137;28;20448;-83
2023/01/30 00:03:02;;;;;;;67.40;33.53;;;-1.80;99.90;;;-3.42;100.00;97991.25;5073368;28;20481;-82
2023/01/30 00:05:28;;;;;;;69.95;34.28;;;-1.90;99.90;;;-3.46;100.00;97989.13;5073306;28;20395;-82
2023/01/30 00:07:54;;;;;;;66.35;31.73;;;-1.90;99.90;;;-3.51;100.00;97979.19;5075639;28;20406;-81
2023/01/30 00:10:20;;;;;;;70.13;34.25;;;-2.00;99.90;;;-3.55;100.00;97963.16;5076733;28;20407;-82
2023/01/30 00:12:46;;;;;;;67.30;33.47;;;-2.00;99.90;;;-3.54;100.00;97963.97;5054792;28;20411;-82
2023/01/30 00:15:12;;;;;;;70.15;33.60;;;-2.00;99.90;;;-3.57;100.00;97952.16;5073187;28;20396;-82
2023/01/30 00:17:39;;;;;;;66.82;33.53;;;-2.00;99.90;;;-3.62;100.00;97941.44;5072905;28;20507;-82
2023/01/30 00:20:06;;;;;;;73.13;35.17;;;-2.10;99.90;;;-3.65;100.00;97931.38;5054490;28;20482;-81
2023/01/30 00:22:32;;;;;;;64.57;31.83;;;-2.10;99.90;;;-3.64;100.00;97932.19;5072629;28;20522;-82
2023/01/30 00:24:58;;;;;;;67.50;33.60;;;-2.10;99.90;;;-3.64;100.00;97938.19;5072850;28;20403;-82
2023/01/30 00:27:24;;;;;;;69.18;34.35;;;-2.10;99.90;;;-3.57;100.00;97946.16;5072827;28;20904;-82
2023/01/30 00:29:49;;;;;;;61.95;31.83;;;-2.00;99.90;;;-3.60;100.00;97943.84;5072589;28;20437;-82
2023/01/30 00:32:15;;;;;;;68.53;34.13;;;-2.00;99.90;;;-3.56;100.00;97946.00;5072374;28;20490;-81
2023/01/30 00:34:43;;;;;;;66.35;35.85;;;-2.00;99.90;;;-3.63;100.00;97939.00;5072571;28;20415;-81
2023/01/30 00:37:09;;;;;;;71.45;36.17;;;-2.10;99.90;;;-3.61;100.00;97919.75;5072544;28;20503;-81
2023/01/30 00:39:34;;;;;;;64.40;34.03;;;-2.10;99.90;;;-3.64;100.00;97914.09;5072397;28;20396;-81
2023/01/30 00:47:30;;;;;;;64.45;34.22;;;-2.10;99.90;;;-3.67;100.00;97922.13;5072349;28;20395;-81
2023/01/30 00:49:57;;;;;;;72.45;35.40;;;-2.10;99.90;;;-3.69;100.00;97932.66;5054037;28;20796;-81
2023/01/30 00:52:23;;;;;;;67.38;35.13;;;-2.10;99.90;;;-3.69;100.00;97939.59;5054058;28;20423;-81
2023/01/30 00:54:51;;;;;;;71.20;37.67;;;-2.10;99.90;;;-3.66;100.00;97944.44;5072420;28;20400;-81
2023/01/30 00:57:17;;;;;;;69.63;34.92;;;-2.10;99.90;;;-3.68;100.00;97944.59;5072197;28;20898;-81
2023/01/30 00:59:43;;;;;;;67.40;35.25;;;-2.10;99.90;;;-3.68;100.00;97962.69;5072012;28;20880;-81
2023/01/30 01:02:09;;;;;;;68.82;35.67;;;-2.10;99.90;;;-3.66;100.00;97971.13;5053781;28;20413;-82
2023/01/30 01:04:42;;;;;;;67.53;33.38;;;-2.10;99.90;;;-3.68;100.00;97983.38;5072211;28;20425;-81
2023/01/30 01:07:09;;;;;;;65.57;33.53;;;-2.10;99.90;;;-3.67;100.00;97992.78;5071941;28;20446;-81
2023/01/30 01:09:35;;;;;;;64.72;32.90;;;-2.10;99.90;;;-3.73;100.00;98006.31;5071968;28;20423;-81
2023/01/30 01:12:02;;;;;;;63.38;32.88;;;-2.10;99.90;;;-3.74;100.00;98015.03;5071647;28;20399;-81
2023/01/30 01:14:28;;;;;;;58.45;31.75;;;-2.10;99.90;;;-3.70;100.00;98005.22;5071990;28;20899;-81
2023/01/30 01:16:54;;;;;;;61.63;32.53;;;-2.10;99.90;;;-3.71;100.00;97998.41;5071962;28;20403;-80
2023/01/30 01:19:20;;;;;;;65.07;34.83;;;-2.20;99.90;;;-3.67;100.00;98008.31;5071760;28;20889;-81
2023/01/30 01:21:46;;;;;;;67.50;34.97;;;-2.10;99.90;;;-3.67;100.00;98003.13;5071327;28;20456;-80
2023/01/30 01:24:14;;;;;;;62.90;33.20;;;-2.10;99.90;;;-3.68;100.00;97998.09;5071615;28;20494;-81
2023/01/30 01:26:41;;;;;;;68.22;33.33;;;-2.10;99.90;;;-3.68;100.00;98017.03;5071493;28;20872;-81
2023/01/30 01:29:11;;;;;;;58.80;32.28;;;-2.10;99.90;;;-3.64;100.00;98015.78;5071854;28;20419;-82
2023/01/30 01:31:37;;;;;;;59.97;32.50;;;-2.10;99.90;;;-3.62;100.00;98018.22;5070984;28;20439;-82
2023/01/30 01:34:03;;;;;;;67.07;33.97;;;-2.00;99.90;;;-3.59;100.00;98023.91;5071904;28;20434;-80
2023/01/30 01:36:29;;;;;;;72.25;36.13;;;-2.00;99.90;;;-3.57;100.00;98021.19;5071741;28;20404;-81
2023/01/30 01:38:55;;;;;;;63.45;34.53;;;-2.00;99.90;;;-3.53;100.00;98022.50;5072039;28;20475;-80
2023/01/30 01:41:22;;;;;;;68.05;34.95;;;-2.00;99.90;;;-3.54;100.00;98006.19;5072133;28;20418;-80
2023/01/30 01:44:03;;;;;;;62.20;31.92;;;-2.00;99.90;;;-3.53;100.00;98002.63;5072059;28;21019;-80
2023/01/30 01:46:33;;;;;;;58.45;32.30;;;-2.00;99.90;;;-3.51;100.00;98007.66;5077261;28;20457;-81
2023/01/30 01:49:04;;;;;;;62.40;32.63;;;-1.90;99.90;;;-3.46;100.00;97991.72;5094064;28;20458;-81
2023/01/30 01:51:37;;;;;;;59.50;32.05;;;-1.90;99.90;;;-3.46;100.00;97987.34;5089946;28;20849;-81
2023/01/30 01:54:08;;;;;;;67.45;32.53;;;-1.90;99.90;;;-3.44;100.00;98000.13;5086502;28;20756;-81
2023/01/30 01:56:39;;;;;;;59.67;30.20;;;-1.90;99.90;;;-3.43;100.00;98005.16;5095975;28;20388;-81
2023/01/30 01:59:12;;;;;;;62.33;31.42;;;-1.80;99.90;;;-3.40;100.00;97994.50;5087585;28;20439;-81
2023/01/30 02:01:38;;;;;;;64.53;33.17;;;-1.80;99.90;;;-3.40;100.00;97991.91;5071881;28;20396;-82
2023/01/30 02:04:08;;;;;;;60.17;32.72;;;-1.90;99.90;;;-3.37;100.00;98001.97;5071670;28;20426;-81
2023/01/30 02:06:36;;;;;;;62.90;33.55;;;-1.90;99.90;;;-3.34;100.00;98006.03;5070859;28;20403;-81
2023/01/30 02:09:06;;;;;;;65.20;35.25;;;-1.80;99.90;;;-3.30;100.00;98002.19;5070906;28;20411;-81
2023/01/30 02:11:46;;;;;;;55.93;32.60;;;-1.70;99.90;;;-3.31;100.00;98006.56;5070486;28;20561;-81
2023/01/30 02:14:13;;;;;;;55.58;31.85;;;-1.70;99.90;;;-3.30;100.00;98015.13;5052833;28;20399;-79
2023/01/30 02:16:40;;;;;;;64.40;33.85;;;-1.70;99.90;;;-3.30;100.00;98008.16;5070817;28;20396;-80
2023/01/30 02:19:23;;;;;;;65.85;34.80;;;-1.80;99.90;;;-3.29;100.00;97999.44;5070737;28;20876;-82
2023/01/30 02:22:34;;;;;;;57.63;32.22;;;-1.80;99.90;;;-3.33;100.00;97992.97;5070305;28;20491;-81
2023/01/30 02:25:42;;;;;;;59.08;32.95;;;-1.80;99.90;;;-3.32;100.00;97983.41;5070564;28;20552;-81
2023/01/30 02:28:38;;;;;;;57.60;32.28;;;-1.80;99.90;;;-3.36;100.00;97976.91;5070426;28;20403;-82
2023/01/30 02:31:22;;;;;;;60.17;33.50;;;-1.80;99.90;;;-3.40;100.00;97957.47;5070247;28;20405;-81
2023/01/30 02:34:03;;;;;;;62.13;33.65;;;-1.80;99.90;;;-3.37;100.00;97959.72;5070461;28;20465;-81
2023/01/30 02:36:47;;;;;;;59.03;33.28;;;-1.80;99.90;;;-3.36;100.00;97976.91;5070424;28;20396;-82
2023/01/30 02:39:28;;;;;;;61.67;34.67;;;-1.80;99.90;;;-3.34;100.00;97988.72;5070409;28;20396;-81
2023/01/30 02:42:02;;;;;;;68.53;36.97;;;-1.80;99.90;;;-3.31;100.00;97991.03;5069875;28;20458;-81
2023/01/30 02:44:40;;;;;;;68.30;37.22;;;-1.80;99.90;;;-3.37;100.00;97972.69;5070249;28;20414;-82
2023/01/30 02:47:14;;;;;;;65.47;36.45;;;-1.90;99.90;;;-3.50;100.00;97934.25;5070263;28;20425;-81
2023/01/30 02:49:47;;;;;;;66.65;36.85;;;-2.00;99.90;;;-3.56;100.00;97927.09;5070240;28;20422;-81
2023/01/30 02:52:14;;;;;;;63.97;35.30;;;-2.10;99.90;;;-3.52;100.00;97970.63;5070072;28;20474;-80
2023/01/30 02:54:40;;;;;;;62.72;35.28;;;-2.00;99.90;;;-3.41;100.00;97974.75;5070145;28;20404;-83
2023/01/30 02:57:19;;;;;;;63.03;34.10;;;-2.00;99.90;;;-3.43;100.00;97962.94;5070367;28;20743;-81
2023/01/30 02:59:49;;;;;;;61.27;34.43;;;-1.90;99.90;;;-3.54;100.00;97938.91;5070217;28;20902;-81
2023/01/30 03:03:09;;;;;;;63.83;33.67;;;-2.00;99.90;;;-3.57;100.00;97928.84;5069959;28;20396;-81
2023/01/30 03:05:57;;;;;;;62.40;33.50;;;-2.10;99.90;;;-3.57;100.00;97931.44;5070143;28;20412;-82
2023/01/30 03:08:32;;;;;;;58.53;32.58;;;-2.00;99.90;;;-3.61;100.00;97900.84;5070363;28;20822;-81
2023/01/30 03:11:02;;;;;;;62.60;32.85;;;-2.10;99.90;;;-3.61;100.00;97893.09;5075581;28;20465;-81
2023/01/30 03:13:41;;;;;;;59.88;31.65;;;-2.10;99.90;;;-3.58;100.00;97882.44;5069981;28;20407;-82
2023/01/30 03:16:11;;;;;;;58.75;30.85;;;-2.10;99.90;;;-3.58;100.00;97874.66;5070108;28;20871;-81
2023/01/30 03:18:41;;;;;;;58.63;31.65;;;-2.10;99.90;;;-3.58;100.00;97866.91;5071048;28;20467;-81
2023/01/30 03:21:07;;;;;;;59.65;31.27;;;-2.10;99.90;;;-3.46;100.00;97862.31;5070250;28;20499;-83
2023/01/30 03:23:34;;;;;;;55.00;29.27;;;-2.00;99.90;;;-3.45;100.00;97845.81;5069809;28;20411;-81
2023/01/30 03:26:02;;;;;;;52.85;30.00;;;-2.00;99.90;;;-3.34;100.00;97841.22;5051973;28;20438;-82
2023/01/30 03:28:29;;;;;;;51.83;29.42;;;-1.90;99.90;;;-3.34;100.00;97823.09;5069922;28;20421;-82
2023/01/30 03:30:55;;;;;;;52.22;28.48;;;-1.90;99.90;;;-3.29;100.00;97801.91;5069768;28;20450;-82
2023/01/30 03:33:21;;;;;;;53.17;28.40;;;-1.80;99.90;;;-3.16;100.00;97797.16;5069708;28;20478;-82
2023/01/30 03:35:48;;;;;;;52.15;29.45;;;-1.80;99.90;;;-3.11;100.00;97805.25;5070032;28;20962;-82
2023/01/30 03:38:14;;;;;;;49.78;28.33;;;-1.60;99.90;;;-3.10;100.00;97812.06;5069855;28;20761;-80
2023/01/30 03:40:40;;;;;;;53.43;29.77;;;-1.70;99.90;;;-2.96;100.00;97816.66;5089174;22;20455;-77
2023/01/30 03:43:06;;;;;;;48.83;27.00;;;-1.50;99.90;;;-2.91;100.00;97811.81;5109431;28;20957;-78
2023/01/30 03:45:32;;;;;;;46.33;26.02;;;-1.50;99.90;;;-2.86;100.00;97814.75;5109119;28;20750;-78
2023/01/30 03:47:58;;;;;;;39.42;25.27;;;-1.40;99.90;;;-2.74;100.00;97807.50;5110269;28;20408;-78
2023/01/30 03:50:24;;;;;;;41.50;25.33;;;-1.40;99.90;;;-2.75;100.00;97804.09;5110140;28;20420;-77
2023/01/30 03:52:51;;;;;;;43.90;25.05;;;-1.30;99.90;;;-2.68;100.00;97804.28;5110119;28;20396;-78
2023/01/30 03:55:17;;;;;;;40.42;23.50;;;-1.30;99.90;;;-2.64;100.00;97813.38;5109775;28;20960;-78
2023/01/30 03:57:43;;;;;;;44.47;26.75;;;-1.30;99.90;;;-2.67;100.00;97829.22;5113907;28;20403;-78
2023/01/30 04:00:10;;;;;;;45.55;26.50;;;-1.20;99.90;;;-2.45;100.00;97831.22;5112559;28;20392;-78
2023/01/30 04:02:37;;;;;;;44.20;26.77;;;-1.10;99.90;;;-2.36;100.00;97835.47;5113753;28;20404;-78
2023/01/30 04:05:04;;;;;;;43.00;26.25;;;-0.90;99.90;;;-2.19;100.00;97841.50;5113863;28;20396;-77
2023/01/30 04:07:30;;;;;;;43.83;26.75;;;-0.90;99.90;;;-2.03;100.00;97851.09;5113769;28;20453;-79
2023/01/30 04:09:57;;;;;;;42.25;26.83;;;-0.70;99.90;;;-2.06;100.00;97846.22;5112379;28;20417;-78
2023/01/30 04:12:23;;;;;;;40.05;26.10;;;-0.70;99.90;;;-2.21;100.00;97835.66;5113298;28;20461;-78
2023/01/30 04:14:49;;;;;;;37.58;23.38;;;-0.70;99.90;;;-2.24;100.00;97835.97;5113715;28;20400;-78
2023/01/30 04:17:14;;;;;;;38.13;23.98;;;-0.90;99.90;;;-2.14;100.00;97841.84;5113797;28;20392;-78
2023/01/30 04:19:40;;;;;;;38.08;24.08;;;-0.80;99.90;;;-2.10;100.00;97834.53;5113569;28;20400;-78
2023/01/30 04:22:06;;;;;;;41.25;24.63;;;-0.70;99.90;;;-1.97;100.00;97837.47;5113155;28;20400;-78
2023/01/30 04:24:32;;;;;;;39.83;24.87;;;-0.60;99.90;;;-1.82;100.00;97833.28;5113602;28;20914;-78
2023/01/30 04:26:59;;;;;;;34.53;22.15;;;-0.50;99.90;;;-1.88;100.00;97825.34;5112099;28;20413;-78
2023/01/30 04:29:25;;;;;;;34.95;23.17;;;-0.50;99.90;;;-1.89;100.00;97828.91;5113198;28;20420;-78
2023/01/30 04:31:51;;;;;;;32.97;21.98;;;-0.50;99.90;;;-1.97;100.00;97829.69;5112968;28;20480;-78
2023/01/30 04:34:17;;;;;;;33.63;21.63;;;-0.60;99.90;;;-1.95;100.00;97820.75;5113290;28;20392;-78
2023/01/30 04:36:43;;;;;;;32.08;21.17;;;-0.60;99.90;;;-1.93;100.00;97820.59;5113219;28;20970;-78
2023/01/30 04:39:09;;;;;;;33.72;22.15;;;-0.60;99.90;;;-1.80;100.00;97812.34;5113205;28;20411;-78
2023/01/30 04:41:34;;;;;;;30.13;20.67;;;-0.50;99.90;;;-1.86;100.00;97818.16;5112663;28;20757;-78
2023/01/30 04:44:02;;;;;;;31.45;21.10;;;-0.50;99.90;;;-1.83;100.00;97825.66;5113049;28;20400;-78
2023/01/30 04:46:28;;;;;;;31.42;19.52;;;-0.50;99.90;;;-1.92;100.00;97819.63;5113008;28;20734;-78
2023/01/30 04:48:53;;;;;;;31.88;21.13;;;-0.60;99.90;;;-1.86;100.00;97821.59;5110571;28;20404;-78
2023/01/30 04:51:19;;;;;;;31.13;19.65;;;-0.50;99.90;;;-1.83;100.00;97815.28;5111291;28;20749;-78
2023/01/30 04:53:45;;;;;;;32.20;20.67;;;-0.50;99.90;;;-1.82;100.00;97802.13;5112440;28;20463;-78
2023/01/30 04:56:11;;;;;;;31.07;19.03;;;-0.50;99.90;;;-1.91;100.00;97815.25;5112581;28;20400;-78
2023/01/30 04:58:37;;;;;;;28.58;19.33;;;-0.50;99.90;;;-1.79;100.00;97811.34;5112779;28;20396;-78
2023/01/30 05:01:19;;;;;;;28.35;18.88;;;-0.50;99.90;;;-1.82;100.00;97814.28;5112494;28;20411;-79
2023/01/30 05:03:49;;;;;;;26.42;17.98;;;-0.50;99.90;;;-1.75;100.00;97812.66;5112067;28;20388;-77
2023/01/30 05:06:15;;;;;;;27.70;18.05;;;-0.50;99.90;;;-1.80;100.00;97796.75;5111411;28;20414;-78
2023/01/30 05:08:41;;;;;;;27.03;18.43;;;-0.50;99.90;;;-1.91;100.00;97799.69;5111945;28;20461;-77
2023/01/30 05:11:07;;;;;;;29.42;18.35;;;-0.50;99.90;;;-1.82;100.00;97794.34;5112224;28;20396;-77
2023/01/30 05:13:33;;;;;;;29.10;18.63;;;-0.50;99.90;;;-1.71;100.00;97790.59;5110651;28;20436;-77
2023/01/30 05:15:59;;;;;;;29.17;18.90;;;-0.40;99.90;;;-1.75;100.00;97797.09;5106869;28;20473;-77
2023/01/30 05:18:26;;;;;;;27.90;18.58;;;-0.30;99.90;;;-1.76;100.00;97785.91;5108251;28;20968;-77
2023/01/30 05:20:52;;;;;;;26.20;17.98;;;-0.40;99.90;;;-1.75;100.00;97776.34;5095603;28;20422;-77
2023/01/30 05:23:18;;;;;;;26.10;16.90;;;-0.40;99.90;;;-1.82;100.00;97776.19;5091817;28;20828;-81
2023/01/30 05:25:44;;;;;;;27.80;18.63;;;-0.40;99.90;;;-1.64;100.00;97774.22;5092069;28;20428;-78
2023/01/30 05:28:09;;;;;;;25.92;17.38;;;-0.40;99.90;;;-1.61;100.00;97770.47;5091816;28;20454;-79
2023/01/30 05:30:36;;;;;;;24.40;17.00;;;-0.30;99.90;;;-1.68;100.00;97767.75;5091665;28;20448;-78
2023/01/30 05:33:02;;;;;;;25.40;17.17;;;-0.40;99.90;;;-1.70;100.00;97763.69;5091512;28;20455;-78
2023/01/30 05:35:29;;;;;;;25.60;16.10;;;-0.30;99.90;;;-1.58;100.00;97754.59;5091729;28;20790;-75
2023/01/30 05:37:55;;;;;;;27.17;16.80;;;-0.30;99.90;;;-1.62;100.00;97761.06;5091748;28;20534;-76
2023/01/30 05:40:21;;;;;;;24.30;17.02;;;-0.20;99.90;;;-1.59;100.00;97758.97;5091421;28;20943;-76
2023/01/30 05:42:46;;;;;;;23.23;16.33;;;-0.20;99.90;;;-1.47;100.00;97756.00;5091588;28;20867;-78
2023/01/30 05:45:12;;;;;;;26.40;16.95;;;-0.20;99.90;;;-1.54;100.00;97755.06;5091608;28;20408;-78
2023/01/30 05:47:38;;;;;;;22.90;15.52;;;-0.20;99.90;;;-1.53;100.00;97759.28;5090214;28;20408;-77
2023/01/30 05:50:05;;;;;;;23.38;16.00;;;-0.20;99.90;;;-1.45;100.00;97751.47;5091311;28;20422;-78
2023/01/30 05:52:32;;;;;;;22.92;15.93;;;-0.10;99.90;;;-1.42;100.00;97754.53;5091344;28;20863;-79
2023/01/30 05:54:58;;;;;;;23.88;15.25;;;-0.10;99.90;;;-1.47;100.00;97761.22;5091386;28;20405;-79
2023/01/30 05:57:24;;;;;;;22.98;15.48;;;-0.10;99.90;;;-1.51;100.00;97762.53;5091389;28;20402;-78
2023/01/30 05:59:50;;;;;;;21.07;15.57;;;-0.20;99.90;;;-1.52;100.00;97769.50;5091254;28;20398;-79
2023/01/30 06:02:16;;;;;;;22.38;15.07;;;-0.20;99.90;;;-1.53;100.00;97762.69;5090942;28;20398;-78
2023/01/30 06:04:41;;;;;;;24.38;15.43;;;-0.20;99.90;;;-1.60;100.00;97777.31;5090875;28;20472;-79
2023/01/30 06:07:07;;;;;;;22.13;15.50;;;-0.20;99.90;;;-1.56;100.00;97766.41;5089911;28;20405;-79
2023/01/30 06:09:35;;;;;;;21.67;15.20;;;-0.20;99.90;;;-1.52;100.00;97758.31;5088416;28;20905;-78
2023/01/30 06:12:00;;;;;;;22.70;15.13;;;-0.20;99.90;;;-1.53;100.00;97782.63;5089459;28;20398;-78
2023/01/30 06:14:26;;;;;;;22.30;15.27;;;-0.20;99.90;;;-1.58;100.00;97770.94;5089796;28;20460;-78
2023/01/30 06:16:52;;;;;;;21.37;15.10;;;-0.20;99.90;;;-1.47;100.00;97763.81;5089741;28;20430;-78
2023/01/30 06:19:18;;;;;;;20.98;14.77;;;-0.20;99.90;;;-1.50;100.00;97762.34;5089108;28;20402;-80
2023/01/30 06:21:44;;;;;;;21.27;14.57;;;-0.20;99.90;;;-1.58;100.00;97749.41;5090521;28;20402;-79
2023/01/30 06:24:10;;;;;;;21.25;15.32;;;-0.20;99.90;;;-1.67;100.00;97753.78;5091174;28;20434;-79
2023/01/30 06:26:37;;;;;;;23.52;15.80;;;-0.30;99.90;;;-1.59;100.00;97753.78;5090830;28;20459;-79
2023/01/30 06:29:03;;;;;;;22.15;15.38;;;-0.30;99.90;;;-1.70;100.00;97756.72;5090774;28;20421;-80
2023/01/30 06:31:29;;;;;;;23.55;16.08;;;-0.30;99.90;;;-1.64;100.00;97747.44;5090525;28;20473;-79
2023/01/30 06:33:54;;;;;;;24.30;15.88;;;-0.30;99.90;;;-1.62;100.00;97758.47;5090802;28;20479;-79
2023/01/30 06:36:20;;;;;;;22.20;15.25;;;-0.30;99.90;;;-1.52;100.00;97753.13;5090770;28;20829;-79
2023/01/30 06:38:47;;;;;;;22.90;15.33;;;-0.20;99.90;;;-1.40;100.00;97744.78;5090804;28;20398;-79
2023/01/30 06:41:13;;;;;;;21.00;14.75;;;-0.10;99.90;;;-1.41;100.00;97742.38;5090379;28;20812;-79
2023/01/30 06:43:42;;;;;;;22.63;15.20;;;-0.10;99.90;;;-1.45;100.00;97741.91;5090489;28;20414;-78
2023/01/30 06:46:08;;;;;;;23.20;15.73;;;-0.10;99.90;;;-1.36;100.00;97733.13;5090589;28;20488;-79
2023/01/30 06:48:34;;;;;;;20.95;14.93;;;0.00;99.90;;;-1.33;100.00;97737.16;5090754;28;20759;-79
2023/01/30 06:51:00;;;;;;;22.67;15.45;;;0.00;99.90;;;-1.26;100.00;97740.69;5090319;28;20485;-79
2023/01/30 06:53:29;;;;;;;22.92;14.82;;;0.00;99.90;;;-1.35;100.00;97719.13;5090346;28;20475;-80
2023/01/30 06:55:55;;;;;;;20.70;15.10;;;0.00;99.90;;;-1.27;100.00;97713.91;5090690;28;20406;-79
2023/01/30 06:58:21;;;;;;;20.92;14.13;;;0.10;99.90;;;-1.23;100.00;97719.59;5089289;28;20405;-78
2023/01/30 07:00:48;;;;;;;22.20;14.38;;;0.00;99.90;;;-1.28;100.00;97714.88;5090420;28;20405;-77
2023/01/30 07:03:16;;;;;;;23.33;14.40;;;0.10;99.90;;;-1.28;100.00;97725.28;5090010;28;20406;-81
2023/01/30 07:05:45;;;;;;;20.70;14.70;;;0.10;99.90;;;-1.16;100.00;97725.72;5090071;28;20406;-81
2023/01/30 07:08:11;;;;;;;20.60;14.35;;;0.20;99.90;;;-1.22;100.00;97732.41;5090258;28;20485;-81
2023/01/30 07:10:38;;;;;;;22.65;15.80;;;0.10;99.90;;;-1.05;100.00;97733.13;5090307;28;20422;-78
2023/01/30 07:13:04;;;;;;;19.83;13.70;;;0.30;99.90;;;-1.08;100.00;97737.88;5099306;28;20411;-80
2023/01/30 07:15:31;;;;;;;21.45;14.85;;;0.30;99.90;;;-1.04;100.00;97744.34;5097693;28;20525;-79
2023/01/30 07:17:58;;;;;;;20.13;13.95;;;0.30;99.90;;;-1.07;100.00;97757.69;5102297;28;20915;-81
2023/01/30 07:20:24;;;;;;;18.10;13.23;;;0.20;99.90;;;-1.12;100.00;97773.75;5093305;28;20388;-80
2023/01/30 07:22:50;;;;;;;19.10;13.40;;;0.20;99.90;;;-1.13;100.00;97763.56;5093107;28;20841;-79
2023/01/30 07:25:17;;;;;;;19.35;13.18;;;0.20;99.90;;;-1.22;100.00;97773.97;5092724;28;20982;-80
2023/01/30 07:27:48;;;;;;;20.23;13.63;;;0.20;99.90;;;-1.18;100.00;97771.81;5105717;28;20491;-80
2023/01/30 07:30:14;;;;;;;20.13;12.63;;;0.10;99.90;;;-1.12;100.00;97771.16;5110432;28;20411;-80
2023/01/30 07:32:40;;;;;;;18.75;13.07;;;0.20;99.90;;;-0.97;100.00;97784.25;5108328;28;20484;-80
2023/01/30 07:35:08;;;;;;;19.15;12.93;;;0.30;99.90;;;-0.99;100.00;97765.44;5104128;28;20467;-81
2023/01/30 07:37:34;;;;;;;17.77;12.40;;;0.40;99.90;;;-0.97;100.00;97771.25;5102304;28;20400;-81
2023/01/30 07:40:00;;;;;;;20.33;13.80;;;0.40;99.90;;;-0.80;100.00;97768.44;5106125;28;20903;-81
2023/01/30 07:42:26;;;;;;;17.95;12.35;;;0.50;99.90;;;-0.72;100.00;97782.38;5103146;28;20426;-81
2023/01/30 07:44:52;;;;;;;16.45;11.93;;;0.60;99.90;;;-0.89;100.00;97785.03;5107211;28;20431;-81
2023/01/30 07:47:19;;;;;;;19.33;12.23;;;0.50;99.90;;;-0.94;100.00;97795.13;5108176;28;20822;-81
2023/01/30 07:49:45;;;;;;;16.33;11.27;;;0.40;99.90;;;-0.83;100.00;97791.38;5106614;28;20440;-80
2023/01/30 07:52:12;;;;;;;16.90;12.15;;;0.40;99.90;;;-0.76;100.00;97796.69;5102510;28;20392;-81
2023/01/30 07:54:38;;;;;;;16.95;11.48;;;0.50;99.90;;;-0.81;100.00;97791.97;5102980;28;20487;-80
2023/01/30 07:57:04;;;;;;;17.85;11.85;;;0.50;99.90;;;-0.73;100.00;97783.34;5108626;28;20461;-80
2023/01/30 07:59:35;;;;;;;16.02;11.32;;;0.60;99.90;;;-0.55;100.00;97778.72;5116822;27;20490;-81
2023/01/30 08:02:00;;;;;;;15.23;11.18;;;0.70;99.90;;;-0.62;100.00;97775.97;5103261;28;20482;-81
2023/01/30 08:04:26;;;;;;;16.57;11.00;;;0.70;99.90;;;-0.56;100.00;97761.47;5106351;28;20864;-77
2023/01/30 08:06:52;;;;;;;16.77;11.73;;;0.80;99.90;;;-0.63;100.00;97769.16;5105622;28;20411;-78
2023/01/30 08:09:19;;;;;;;16.42;11.57;;;0.70;99.90;;;-0.56;100.00;97767.50;5100698;28;20445;-79
2023/01/30 08:11:45;;;;;;;15.48;11.30;;;0.70;99.90;;;-0.62;100.00;97782.97;5103393;28;20408;-79
2023/01/30 08:14:11;;;;;;;16.00;11.40;;;0.70;99.90;;;-0.71;100.00;97790.00;5104795;28;20751;-79
2023/01/30 08:16:38;;;;;;;17.30;12.13;;;0.60;99.90;;;-0.62;100.00;97803.78;5103152;28;20413;-79
2023/01/30 08:19:05;;;;;;;17.48;11.88;;;0.70;99.90;;;-0.51;100.00;97811.97;5100388;28;20890;-81
2023/01/30 08:21:31;;;;;;;18.67;12.05;;;0.80;99.90;;;-0.28;100.00;97800.81;5105808;28;20419;-80
2023/01/30 08:23:57;;;;;;;15.35;11.45;;;0.90;99.90;;;-0.38;100.00;97798.44;5102732;28;20470;-80
2023/01/30 08:26:24;;;;;;;17.13;12.48;;;0.90;99.90;;;-0.46;100.00;97785.50;5102919;28;20936;-81
2023/01/30 08:28:50;;;;;;;23.73;16.70;;;0.90;99.90;;;-0.38;100.00;97781.03;5099088;28;20448;-81
2023/01/30 08:31:16;;;;;;;16.38;11.48;;;0.90;99.90;;;-0.42;100.00;97774.56;5105425;28;20773;-82
2023/01/30 08:33:43;;;;;;;20.85;12.65;;;0.80;99.90;;;-0.48;100.00;97770.06;5097830;28;20484;-81
2023/01/30 08:36:09;;;;;;;18.67;11.77;;;0.80;99.90;;;-0.57;100.00;97758.06;5111504;28;20407;-81
2023/01/30 08:38:37;;;;;;;19.35;12.70;;;0.80;99.90;;;-0.54;100.00;97734.34;5104950;28;20427;-81
2023/01/30 08:41:05;;;;;;;17.75;11.57;;;0.80;99.90;;;-0.64;100.00;97751.13;5098477;28;20421;-77
2023/01/30 08:43:33;;;;;;;16.58;12.18;;;0.70;99.90;;;-0.70;100.00;97744.03;5101089;28;20828;-80
2023/01/30 08:45:59;;;;;;;17.63;11.77;;;0.60;99.90;;;-0.59;100.00;97738.41;5112281;28;20408;-79
2023/01/30 08:48:25;;;;;;;19.45;12.52;;;0.70;99.90;;;-0.49;100.00;97732.03;5106772;28;20477;-80
2023/01/30 08:50:52;;;;;;;15.88;11.30;;;0.80;99.90;;;-0.40;100.00;97728.41;5091325;28;20936;-82
2023/01/30 08:53:18;;;;;;;15.80;10.00;;;0.90;99.90;;;-0.38;100.00;97728.22;5091093;28;20771;-81
2023/01/30 08:55:44;;;;;;;17.13;10.77;;;0.90;99.90;;;-0.26;100.00;97724.22;5103895;28;20397;-80
2023/01/30 08:58:10;;;;;;;16.70;11.40;;;1.00;99.90;;;-0.13;100.00;97739.25;5092441;28;20402;-80
2023/01/30 09:00:38;;;;;;;15.87;10.33;;;1.10;99.90;;;-0.04;100.00;97735.59;5104516;28;20412;-80
2023/01/30 09:03:04;;;;;;;15.27;10.82;;;1.20;99.90;;;-0.03;100.00;97721.59;5099122;28;20420;-79
2023/01/30 09:05:30;;;;;;;16.40;10.13;;;1.20;99.90;;;-0.09;100.00;97696.28;5096575;28;20457;-80
2023/01/30 09:07:56;;;;;;;15.30;10.70;;;1.20;99.90;;;-0.01;100.00;97688.41;5112621;28;20404;-80
2023/01/30 09:10:23;;;;;;;14.77;9.77;;;1.20;99.90;;;0.07;100.00;97666.72;5112491;28;20515;-79
2023/01/30 09:12:49;;;;;;;13.57;9.70;;;1.30;99.90;;;0.13;100.00;97673.81;5112294;28;20396;-80
2023/01/30 09:15:15;;;;;;;15.18;10.70;;;1.40;99.90;;;0.24;100.00;97671.56;5109043;28;20439;-78
2023/01/30 09:17:43;;;;;;;12.45;9.18;;;1.50;99.90;;;0.47;100.00;97670.66;5102481;28;20408;-80
2023/01/30 09:20:11;;;;;;;12.60;8.77;;;1.70;99.90;;;0.73;100.00;97673.63;5106558;28;20404;-80
2023/01/30 09:22:37;;;;;;;14.70;9.45;;;2.00;99.90;;;0.86;100.00;97675.56;5109528;28;20905;-77
2023/01/30 09:25:04;;;;;;;13.52;9.43;;;2.10;99.90;;;0.85;100.00;97690.41;5107491;28;20912;-78
2023/01/30 09:27:30;;;;;;;12.35;8.90;;;2.10;99.90;;;1.08;100.00;97692.88;5101368;28;20416;-80
2023/01/30 09:29:56;;;;;;;11.50;8.23;;;2.30;99.90;;;1.07;100.00;97693.84;5100437;28;20412;-84
2023/01/30 09:32:22;;;;;;;13.88;8.80;;;2.30;99.90;;;1.06;100.00;97685.22;5103874;28;20889;-80
2023/01/30 09:34:50;;;;;;;13.63;8.32;;;2.20;99.90;;;0.96;100.00;97687.34;5094629;28;20410;-77
2023/01/30 09:37:16;;;;;;;14.23;8.47;;;2.20;99.90;;;0.99;100.00;97692.16;5109205;28;20521;-80
2023/01/30 09:39:41;;;;;;;11.05;7.70;;;2.10;99.90;;;1.10;100.00;97702.13;5111704;28;20519;-80
2023/01/30 09:42:46;;;;;;;10.82;8.00;;;2.20;99.90;;;1.07;100.00;97707.69;5110644;22;20487;-77
2023/01/30 09:45:42;;;;;;;10.35;7.38;;;2.20;99.90;;;0.74;100.00;97689.06;5090187;28;20454;-77
2023/01/30 09:48:18;;;;;;;11.35;7.80;;;2.00;99.90;;;0.68;100.00;97687.16;5089101;28;20413;-77
2023/01/30 09:51:18;;;;;;;11.85;7.85;;;1.90;99.90;;;0.69;100.00;97682.78;5093560;28;20418;-77
2023/01/30 09:54:10;;;;;;;11.25;8.23;;;1.90;99.90;;;0.64;100.00;97678.13;5093278;28;20452;-77
2023/01/30 09:56:36;;;;;;;12.30;8.27;;;1.90;99.90;;;0.71;100.00;97679.00;5089976;28;20408;-76
2023/01/30 09:59:04;;;;;;;10.57;7.35;;;1.90;99.90;;;0.81;100.00;97670.09;5094417;28;20403;-76
2023/01/30 10:01:40;;;;;;;11.60;8.00;;;2.00;99.90;;;0.77;100.00;97654.81;5057354;28;20417;-78
2023/01/30 10:04:15;;;;;;;10.23;6.93;;;2.00;99.90;;;0.88;100.00;97650.94;5096837;28;20524;-77
2023/01/30 10:06:52;;;;;;;10.63;7.50;;;2.10;99.90;;;1.02;100.00;97657.13;5056499;28;20504;-77
2023/01/30 10:09:35;;;;;;;9.18;7.13;;;2.10;99.90;;;1.04;100.00;97661.16;5090438;28;20409;-78
2023/01/30 10:12:22;;;;;;;9.32;7.00;;;2.30;99.90;;;1.05;100.00;97654.94;5089560;28;20471;-78
2023/01/30 10:15:27;;;;;;;9.88;7.22;;;2.30;99.90;;;1.11;100.00;97641.19;5089468;28;20429;-77